createdAt,value
2018-09-27T00:02:07.699Z,1.36
2018-09-27T00:08:02.635Z,1.24
2018-09-27T00:13:57.648Z,1.45
2018-09-27T00:19:52.641Z,1.43
2018-09-27T00:25:47.676Z,1.62
2018-09-27T00:31:42.666Z,1.36
2018-09-27T00:37:37.716Z,1.32
2018-09-27T00:43:32.660Z,1.31
2018-09-27T00:49:27.693Z,1.46
2018-09-27T00:55:22.682Z,1.26
2018-09-27T01:01:17.667Z,1.14
2018-09-27T01:07:12.674Z,1.19
2018-09-27T01:13:07.745Z,1.33
2018-09-27T01:24:57.680Z,1.29
2018-09-27T01:24:57.727Z,1.29
2018-09-27T01:30:52.706Z,1.25
2018-09-27T01:36:47.692Z,1.27
2018-09-27T01:42:42.708Z,1.49
2018-09-27T01:48:37.734Z,1.24
2018-09-27T01:54:32.739Z,1.22
2018-09-27T02:00:27.708Z,1.46
2018-09-27T02:06:22.699Z,1.4
2018-09-27T02:12:17.719Z,1.44
2018-09-27T02:18:12.730Z,1.25
2018-09-27T02:24:07.706Z,1.13
2018-09-27T02:30:02.732Z,1.32
2018-09-27T02:35:57.719Z,1.11
2018-09-27T02:41:52.742Z,1.27
2018-09-27T02:47:47.744Z,1.3
2018-09-27T02:53:42.732Z,1.25
2018-09-27T02:59:37.768Z,1.12
2018-09-27T03:05:32.746Z,1.45
2018-09-27T03:11:27.737Z,1.16
2018-09-27T03:17:22.738Z,1.14
2018-09-27T03:23:17.761Z,1.25
2018-09-27T03:29:12.739Z,1.14
2018-09-27T03:35:07.776Z,1.32
2018-09-27T03:41:02.756Z,1.35
2018-09-27T03:46:57.794Z,1.16
2018-09-27T03:52:52.758Z,1.45
2018-09-27T03:58:47.803Z,1.38
2018-09-27T04:04:42.925Z,1.38
2018-09-27T04:10:37.852Z,1.13
2018-09-27T04:16:32.846Z,1.45
2018-09-27T04:22:27.799Z,1.28
2018-09-27T04:28:22.811Z,1.27
2018-09-27T04:34:17.784Z,1.2
2018-09-27T04:40:12.813Z,1.23
2018-09-27T04:46:07.811Z,1.73
2018-09-27T04:52:02.795Z,1.82
2018-09-27T04:57:57.814Z,1.37
2018-09-27T05:03:52.877Z,1.46
2018-09-27T05:09:47.827Z,1.45
2018-09-27T05:15:42.880Z,1.34
2018-09-27T05:21:37.911Z,1.34
2018-09-27T05:27:32.872Z,1.36
2018-09-27T05:33:27.876Z,2.32
2018-09-27T05:39:22.849Z,1.52
2018-09-27T05:45:17.843Z,1.35
2018-09-27T05:51:12.850Z,1.54
2018-09-27T05:57:07.837Z,1.52
2018-09-27T06:03:02.827Z,1.15
2018-09-27T06:08:57.846Z,1.67
2018-09-27T06:14:52.849Z,3.37
2018-09-27T06:20:47.835Z,5.38
2018-09-27T06:26:42.866Z,2.17
2018-09-27T06:32:37.907Z,2.67
2018-09-27T06:38:32.961Z,2.43
2018-09-27T06:44:27.873Z,2.21
2018-09-27T06:50:22.875Z,2.53
2018-09-27T06:56:17.969Z,2.2
2018-09-27T07:02:12.880Z,2.27
2018-09-27T07:08:07.876Z,2.77
2018-09-27T07:14:02.903Z,8.23
2018-09-27T07:19:57.887Z,11.82
2018-09-27T07:25:52.915Z,12.79
2018-09-27T07:31:47.897Z,12.23
2018-09-27T07:37:42.907Z,11.4
2018-09-27T07:43:37.929Z,11.29
2018-09-27T07:49:32.902Z,10.66
2018-09-27T07:55:27.945Z,9.21
2018-09-27T08:01:22.919Z,7.04
2018-09-27T08:07:17.910Z,5.79
2018-09-27T08:13:12.931Z,6.61
2018-09-27T08:19:07.921Z,4.95
2018-09-27T08:25:02.945Z,4.6
2018-09-27T08:30:58.031Z,4.91
2018-09-27T08:36:52.991Z,4.3
2018-09-27T08:42:47.932Z,3.87
2018-09-27T08:48:43.024Z,3.61
2018-09-27T08:54:37.950Z,3.08
2018-09-27T09:00:32.962Z,3.77
2018-09-27T09:06:27.959Z,2.59
2018-09-27T09:12:22.984Z,2.49
2018-09-27T09:18:17.970Z,2.32
2018-09-27T09:24:12.966Z,2.65
2018-09-27T09:30:07.977Z,2.03
2018-09-27T09:36:03.016Z,1.89
2018-09-27T09:41:58.015Z,1.89
2018-09-27T09:47:53.004Z,2.1
2018-09-27T09:53:48.016Z,2.29
2018-09-27T09:59:43.006Z,2.6
2018-09-27T10:05:38.011Z,2.53
2018-09-27T10:11:32.999Z,2.84
2018-09-27T10:17:28.033Z,2.21
2018-09-27T10:23:23.012Z,2.68
2018-09-27T10:29:18.031Z,2.58
2018-09-27T10:35:13.046Z,2.15
2018-09-27T10:41:08.112Z,2
2018-09-27T10:47:03.040Z,2.47
2018-09-27T10:52:58.067Z,2.31
2018-09-27T10:58:53.077Z,2.2
2018-09-27T11:04:48.081Z,2.32
2018-09-27T11:10:43.061Z,1.71
2018-09-27T11:16:38.122Z,2.31
2018-09-27T11:22:33.146Z,1.83
2018-09-27T11:28:28.107Z,1.89
2018-09-27T11:34:23.082Z,1.87
2018-09-27T11:40:18.100Z,2.19
2018-09-27T11:46:13.105Z,1.8
2018-09-27T11:52:08.098Z,2.05
2018-09-27T11:58:03.113Z,2.28
2018-09-27T12:03:58.125Z,2.18
2018-09-27T12:09:53.127Z,2.24
2018-09-27T12:15:48.130Z,1.77
2018-09-27T12:21:43.150Z,1.85
2018-09-27T12:27:38.191Z,2.67
2018-09-27T12:33:33.118Z,2.74
2018-09-27T12:39:28.162Z,1.51
2018-09-27T12:45:23.152Z,1.27
2018-09-27T12:51:18.337Z,1.15
2018-09-27T12:57:13.284Z,0.87
2018-09-27T13:03:08.160Z,0.87
2018-09-27T13:09:03.244Z,0.61
2018-09-27T13:14:58.223Z,0.73
2018-09-27T13:20:53.935Z,0.95
2018-09-27T13:26:48.168Z,0.57
2018-09-27T13:32:43.200Z,0.64
2018-09-27T13:38:38.185Z,0.76
2018-09-27T13:44:33.200Z,0.46
2018-09-27T13:50:28.209Z,0.92
2018-09-27T13:56:23.254Z,0.61
2018-09-27T14:02:18.189Z,0.6
2018-09-27T14:08:13.218Z,0.69
2018-09-27T14:14:08.242Z,0.96
2018-09-27T14:20:03.210Z,0.78
2018-09-27T14:25:58.237Z,0.48
2018-09-27T14:31:53.238Z,0.55
2018-09-27T14:37:48.239Z,0.45
2018-09-27T14:43:43.274Z,0.51
2018-09-27T14:49:38.235Z,0.41
2018-09-27T14:55:33.309Z,0.47
2018-09-27T15:01:28.243Z,0.83
2018-09-27T15:07:23.269Z,0.87
2018-09-27T15:13:18.261Z,0.62
2018-09-27T15:19:13.279Z,0.61
2018-09-27T15:25:08.328Z,0.65
2018-09-27T15:31:03.287Z,0.52
2018-09-27T15:36:58.304Z,0.55
2018-09-27T15:42:53.317Z,0.45
2018-09-27T15:48:48.286Z,0.6
2018-09-27T15:54:43.293Z,1.71
2018-09-27T16:00:38.361Z,2.18
2018-09-27T16:06:33.341Z,0.75
2018-09-27T16:12:28.314Z,0.59
2018-09-27T16:18:23.320Z,0.44
2018-09-27T16:24:18.333Z,0.74
2018-09-27T16:30:13.329Z,1.27
2018-09-27T16:36:08.333Z,1.07
2018-09-27T16:42:03.349Z,0.89
2018-09-27T16:47:58.334Z,0.55
2018-09-27T16:53:53.399Z,0.59
2018-09-27T16:59:48.373Z,0.58
2018-09-27T17:05:43.466Z,0.77
2018-09-27T17:11:38.392Z,0.78
2018-09-27T17:17:33.424Z,0.82
2018-09-27T17:23:28.417Z,0.8
2018-09-27T17:29:23.401Z,0.68
2018-09-27T17:35:18.391Z,0.76
2018-09-27T17:41:13.409Z,0.8
2018-09-27T17:47:08.382Z,0.6
2018-09-27T17:53:03.528Z,0.53
2018-09-27T17:58:58.441Z,0.62
2018-09-27T18:04:53.394Z,0.83
2018-09-27T18:10:48.449Z,0.84
2018-09-27T18:16:43.596Z,0.8
2018-09-27T18:22:38.421Z,0.79
2018-09-27T18:28:33.490Z,0.73
2018-09-27T18:34:28.504Z,0.79
2018-09-27T18:40:23.431Z,0.79
2018-09-27T18:46:18.476Z,0.8
2018-09-27T18:52:13.471Z,1.28
2018-09-27T18:58:08.512Z,0.78
2018-09-27T19:04:03.450Z,0.86
2018-09-27T19:09:58.468Z,0.72
2018-09-27T19:15:53.490Z,0.85
2018-09-27T19:21:48.502Z,0.76
2018-09-27T19:27:43.458Z,0.67
2018-09-27T19:33:38.472Z,0.68
2018-09-27T19:39:33.475Z,0.78
2018-09-27T19:45:28.480Z,1
2018-09-27T19:51:23.481Z,1.13
2018-09-27T19:57:18.511Z,1.1
2018-09-27T20:03:13.498Z,0.91
2018-09-27T20:09:08.556Z,1.22
2018-09-27T20:15:03.563Z,1.35
2018-09-27T20:20:58.598Z,1.2
2018-09-27T20:26:53.518Z,1.12
2018-09-27T20:32:48.557Z,1.03
2018-09-27T20:38:43.556Z,0.93
2018-09-27T20:44:38.581Z,0.91
2018-09-27T20:50:33.562Z,1.02
2018-09-27T20:56:28.545Z,1.24
2018-09-27T21:02:23.569Z,1.07
2018-09-27T21:08:18.639Z,1.08
2018-09-27T21:14:13.566Z,0.94
2018-09-27T21:20:08.601Z,1.08
2018-09-27T21:26:03.764Z,1.09
2018-09-27T21:31:58.588Z,1.44
2018-09-27T21:37:53.614Z,1.47
2018-09-27T21:43:48.552Z,0.95
2018-09-27T21:49:43.625Z,0.92
2018-09-27T21:55:38.590Z,1.17
2018-09-27T22:01:33.584Z,1.16
2018-09-27T22:07:28.584Z,1.06
2018-09-27T22:13:23.573Z,1.25
2018-09-27T22:19:18.603Z,1.64
2018-09-27T22:25:13.630Z,1
2018-09-27T22:31:08.785Z,0.97
2018-09-27T22:37:03.587Z,1.23
2018-09-27T22:42:58.634Z,0.86
2018-09-27T22:48:53.647Z,1.15
2018-09-27T22:54:48.631Z,1.15
2018-09-27T23:00:43.628Z,0.97
2018-09-27T23:06:38.605Z,1.03
2018-09-27T23:12:33.622Z,1.07
2018-09-27T23:18:28.630Z,1.2
2018-09-27T23:24:23.649Z,0.79
2018-09-27T23:30:18.681Z,0.98
2018-09-27T23:36:13.662Z,0.84
2018-09-27T23:42:08.687Z,0.81
2018-09-27T23:48:03.641Z,0.79
2018-09-27T23:53:58.717Z,0.69
2018-09-27T23:59:53.677Z,0.9
